Time;durP1;ratioP1;P1;durP2;ratioP2;P2;SDS_P1;SDS_P2;PMS_P1;PMS_P2;Temp;Humidity;BMP_temperature;BMP_pressure;BME280_temperature;BME280_humidity;BME280_pressure;Samples;Min_cycle;Max_cycle;Signal;HPM_P1;HPM_P2
2023/05/18 06:05:21;;;;;;;14.95;6.40;;;;;;;;;;5925793;23;20800;-90
2023/05/18 15:44:41;;;;;;;4.45;2.00;;;;;;;;;;4971422;23;20049;-93
2023/05/18 15:47:08;;;;;;;3.85;1.75;;;;;;;;;;4833263;29;20045;-95
2023/05/18 15:49:40;;;;;;;3.88;1.90;;;;;;;;;;4842578;29;20042;-96
2023/05/18 15:52:21;;;;;;;3.83;1.75;;;;;;;;;;4837268;29;20049;-96
2023/05/18 15:55:25;;;;;;;4.03;1.83;;;;;;;;;;4841247;29;20471;-96
2023/05/18 15:58:20;;;;;;;3.83;1.70;;;;;;;;;;4865171;29;20014;-93
2023/05/18 16:01:27;;;;;;;3.53;1.98;;;;;;;;;;4865244;29;20033;-90
2023/05/18 16:03:59;;;;;;;4.20;1.63;;;;;;;;;;4865578;29;20045;-94
2023/05/18 16:06:52;;;;;;;4.28;1.55;;;;;;;;;;4832215;29;20050;-91
2023/05/18 16:09:20;;;;;;;3.10;1.73;;;;;;;;;;4847550;29;20045;-89
2023/05/18 16:12:30;;;;;;;3.83;1.90;;;;;;;;;;4872788;29;20040;-91
2023/05/18 16:20:37;;;;;;;4.45;1.80;;;;;;;;;;4880881;29;20049;-91
2023/05/18 16:23:08;;;;;;;6.40;2.50;;;;;;;;;;4884706;29;20403;-89
2023/05/18 16:25:37;;;;;;;3.95;2.25;;;;;;;;;;4852892;29;20058;-90
2023/05/18 16:31:58;;;;;;;4.75;2.47;;;;;;;;;;4797613;29;20078;-90
2023/05/18 16:37:50;;;;;;;5.00;2.28;;;;;;;;;;4885670;29;20116;-94
2023/05/18 16:41:15;;;;;;;3.15;2.15;;;;;;;;;;4885087;29;20029;-90
2023/05/18 16:44:39;;;;;;;6.18;2.67;;;;;;;;;;4884607;29;20033;-89
2023/05/18 16:47:10;;;;;;;6.60;3.30;;;;;;;;;;4862913;29;20034;-91
2023/05/18 16:49:36;;;;;;;8.35;4.45;;;;;;;;;;4883024;29;20018;-90
2023/05/18 16:52:17;;;;;;;6.40;3.65;;;;;;;;;;4882115;29;20033;-91
2023/05/18 16:54:45;;;;;;;7.53;4.10;;;;;;;;;;4866144;29;20056;-92
2023/05/18 16:57:14;;;;;;;9.57;5.72;;;;;;;;;;4883162;29;20029;-95
2023/05/18 16:59:44;;;;;;;11.23;7.13;;;;;;;;;;4881053;29;20104;-90
2023/05/18 17:02:52;;;;;;;14.60;7.65;;;;;;;;;;4863832;29;20049;-91
2023/05/18 17:05:41;;;;;;;13.73;7.55;;;;;;;;;;4877161;29;20045;-95
2023/05/18 17:08:13;;;;;;;13.60;6.13;;;;;;;;;;4858470;29;20053;-96
2023/05/18 17:11:24;;;;;;;;;;;;;;;;;;;;;
2023/05/18 17:13:53;;;;;;;10.93;5.10;;;;;;;;;;4851901;29;20124;-93
2023/05/18 17:16:20;;;;;;;10.85;5.65;;;;;;;;;;4849270;29;20038;-94
2023/05/18 17:18:47;;;;;;;8.77;5.28;;;;;;;;;;4862875;29;20039;-90
2023/05/18 17:21:13;;;;;;;13.05;5.85;;;;;;;;;;4846246;29;20033;-90
2023/05/18 17:23:40;;;;;;;11.48;5.00;;;;;;;;;;4846554;29;20039;-92
2023/05/18 17:26:06;;;;;;;9.73;5.60;;;;;;;;;;4846697;29;20038;-93
2023/05/18 17:28:32;;;;;;;11.77;5.68;;;;;;;;;;4846463;29;20128;-90
2023/05/18 17:30:58;;;;;;;12.45;6.18;;;;;;;;;;4845934;29;20061;-93
2023/05/18 17:33:24;;;;;;;10.75;5.80;;;;;;;;;;4845833;29;20041;-93
2023/05/18 17:35:50;;;;;;;12.48;5.90;;;;;;;;;;4846434;29;20189;-91
2023/05/18 17:38:16;;;;;;;10.88;6.22;;;;;;;;;;4846082;29;20081;-90
2023/05/18 17:40:43;;;;;;;9.75;5.82;;;;;;;;;;4846455;29;20104;-91
2023/05/18 17:43:10;;;;;;;13.38;6.55;;;;;;;;;;4846076;29;20483;-92
2023/05/18 17:45:36;;;;;;;11.68;6.68;;;;;;;;;;4845449;29;20444;-94
2023/05/18 17:48:03;;;;;;;14.82;6.85;;;;;;;;;;4864692;29;20041;-90
2023/05/18 17:50:30;;;;;;;12.82;7.20;;;;;;;;;;4870800;29;20062;-95
2023/05/18 17:52:58;;;;;;;14.82;7.28;;;;;;;;;;4853613;29;20050;-93
2023/05/18 17:55:24;;;;;;;12.13;6.78;;;;;;;;;;4838981;29;20443;-94
2023/05/18 17:57:51;;;;;;;12.93;6.45;;;;;;;;;;4856052;29;20101;-91
2023/05/18 18:00:27;;;;;;;14.38;6.53;;;;;;;;;;4872320;29;20029;-89
2023/05/18 18:02:54;;;;;;;9.98;6.25;;;;;;;;;;4854728;29;20044;-89
2023/05/18 18:05:20;;;;;;;8.73;5.57;;;;;;;;;;4854828;29;20052;-93
2023/05/18 18:07:47;;;;;;;12.65;6.00;;;;;;;;;;4850335;29;20056;-93
2023/05/18 18:10:15;;;;;;;10.68;6.75;;;;;;;;;;4852312;29;20034;-90
2023/05/18 18:12:43;;;;;;;13.70;7.22;;;;;;;;;;4836109;29;20058;-93
2023/05/18 18:15:10;;;;;;;12.38;6.93;;;;;;;;;;4845801;29;20098;-94
2023/05/18 18:17:36;;;;;;;11.45;7.45;;;;;;;;;;4848513;29;20038;-94
2023/05/18 18:20:04;;;;;;;11.30;6.85;;;;;;;;;;4845459;29;20078;-90
2023/05/18 18:22:31;;;;;;;11.00;6.97;;;;;;;;;;4845251;29;20567;-89
2023/05/18 18:24:57;;;;;;;13.90;8.35;;;;;;;;;;4844861;29;20109;-94
2023/05/18 18:27:23;;;;;;;13.32;8.15;;;;;;;;;;4846825;29;20052;-95
2023/05/18 19:00:31;;;;;;;9.23;5.85;;;;;;;;;;5084102;24;20121;-92
2023/05/18 19:05:54;;;;;;;9.15;5.47;;;;;;;;;;4864273;29;20041;-90
2023/05/18 19:33:01;;;;;;;9.60;5.53;;;;;;;;;;4686578;27;20053;-90
2023/05/18 19:35:35;;;;;;;9.45;5.40;;;;;;;;;;4888164;29;20033;-89
2023/05/18 19:38:16;;;;;;;15.55;5.55;;;;;;;;;;4880061;29;20103;-89
2023/05/18 19:40:42;;;;;;;9.68;5.30;;;;;;;;;;4866430;29;20475;-88
2023/05/18 19:43:24;;;;;;;9.80;5.20;;;;;;;;;;4886166;29;20061;-89
2023/05/18 19:45:57;;;;;;;9.45;4.93;;;;;;;;;;4875714;29;20089;-88
2023/05/18 19:48:48;;;;;;;10.20;4.88;;;;;;;;;;4881296;29;20116;-90
2023/05/18 19:51:14;;;;;;;10.25;5.20;;;;;;;;;;4871702;29;20038;-91
2023/05/18 19:53:43;;;;;;;10.15;5.70;;;;;;;;;;4836617;29;20121;-93
2023/05/18 19:56:20;;;;;;;9.43;5.78;;;;;;;;;;4859006;29;20069;-91
2023/05/18 19:58:47;;;;;;;9.25;6.47;;;;;;;;;;4866134;29;20120;-93
2023/05/18 20:01:17;;;;;;;8.73;5.35;;;;;;;;;;4869707;29;20058;-92
2023/05/18 20:04:11;;;;;;;7.32;5.53;;;;;;;;;;4841211;29;20041;-91
2023/05/18 20:06:37;;;;;;;;;;;;;;;;;;4861780;29;20039;-92
2023/05/18 20:09:39;;;;;;;9.63;5.88;;;;;;;;;;4855964;29;19912;-92
2023/05/18 20:12:22;;;;;;;10.55;5.85;;;;;;;;;;4863189;29;20045;-89
2023/05/18 20:14:50;;;;;;;11.20;5.83;;;;;;;;;;4858392;29;20029;-90
2023/05/18 20:17:28;;;;;;;9.30;6.15;;;;;;;;;;4861928;29;20037;-92
2023/05/18 20:19:58;;;;;;;11.63;6.05;;;;;;;;;;4860268;29;20392;-94
2023/05/18 20:22:29;;;;;;;10.07;5.80;;;;;;;;;;4873779;29;20045;-93
2023/05/18 20:24:59;;;;;;;10.02;6.13;;;;;;;;;;4862814;29;20443;-87
2023/05/18 20:27:28;;;;;;;10.65;5.95;;;;;;;;;;4876947;29;20249;-96
2023/05/18 20:30:07;;;;;;;11.18;6.53;;;;;;;;;;4870802;29;20651;-94
2023/05/18 20:32:36;;;;;;;11.57;7.07;;;;;;;;;;4856552;29;20128;-95
2023/05/18 20:35:05;;;;;;;13.00;6.32;;;;;;;;;;4850066;29;20050;-96
2023/05/18 20:37:34;;;;;;;12.65;6.82;;;;;;;;;;4852600;29;20121;-93
2023/05/18 20:40:00;;;;;;;12.25;6.35;;;;;;;;;;4849433;29;20159;-95
2023/05/18 20:42:39;;;;;;;12.73;6.05;;;;;;;;;;4864015;29;20025;-91
2023/05/18 20:45:08;;;;;;;9.43;5.50;;;;;;;;;;4835184;29;20052;-96
2023/05/18 20:47:41;;;;;;;9.05;4.90;;;;;;;;;;4847342;29;20484;-93
2023/05/18 20:50:12;;;;;;;8.05;4.78;;;;;;;;;;4850707;29;20056;-95
2023/05/18 20:52:41;;;;;;;8.13;5.18;;;;;;;;;;4857335;29;20044;-95
2023/05/18 20:55:12;;;;;;;9.80;5.15;;;;;;;;;;4848115;29;20038;-94
2023/05/18 20:57:38;;;;;;;9.35;5.57;;;;;;;;;;4854345;29;20042;-95
2023/05/18 21:00:09;;;;;;;9.52;5.22;;;;;;;;;;4845624;29;20041;-95
2023/05/18 21:02:43;;;;;;;8.73;5.18;;;;;;;;;;4848765;29;20037;-95
2023/05/18 21:05:09;;;;;;;10.52;5.70;;;;;;;;;;4853618;29;20037;-95
2023/05/18 21:07:43;;;;;;;10.30;5.43;;;;;;;;;;4862344;29;20073;-96
2023/05/18 21:10:10;;;;;;;9.60;5.50;;;;;;;;;;4855225;29;20026;-95
2023/05/18 21:12:52;;;;;;;8.82;6.07;;;;;;;;;;4858486;29;20038;-95
2023/05/18 21:15:18;;;;;;;7.55;5.22;;;;;;;;;;4855179;29;20030;-95
2023/05/18 21:17:47;;;;;;;10.68;6.60;;;;;;;;;;4859138;29;20385;-96
2023/05/18 21:20:19;;;;;;;13.65;7.10;;;;;;;;;;4867197;29;20029;-95
2023/05/18 21:22:45;;;;;;;10.32;6.40;;;;;;;;;;4856168;29;20072;-96
2023/05/18 21:25:11;;;;;;;9.43;6.20;;;;;;;;;;4859456;29;20037;-91
2023/05/18 21:27:38;;;;;;;8.80;5.80;;;;;;;;;;4866612;29;20112;-95
2023/05/18 21:30:23;;;;;;;10.80;6.35;;;;;;;;;;4856561;29;20053;-95
2023/05/18 21:32:51;;;;;;;14.50;7.15;;;;;;;;;;4864755;29;20521;-94
2023/05/18 21:35:40;;;;;;;13.02;7.03;;;;;;;;;;4873152;29;20056;-96
2023/05/18 21:38:08;;;;;;;11.40;7.20;;;;;;;;;;4836254;29;20057;-95
2023/05/18 21:40:41;;;;;;;13.52;7.43;;;;;;;;;;4862715;29;20383;-96
2023/05/18 21:43:07;;;;;;;10.52;6.53;;;;;;;;;;4852489;29;20033;-94
2023/05/18 21:45:36;;;;;;;10.82;6.85;;;;;;;;;;4856074;29;20049;-90
2023/05/18 21:48:02;;;;;;;11.35;5.20;;;;;;;;;;4865971;29;20045;-94
2023/05/18 21:50:33;;;;;;;13.35;6.53;;;;;;;;;;4866429;29;20510;-95
2023/05/18 21:53:02;;;;;;;9.43;6.07;;;;;;;;;;4856688;29;20034;-90
2023/05/18 21:55:42;;;;;;;9.80;5.82;;;;;;;;;;4855467;29;20056;-95
2023/05/18 21:58:09;;;;;;;9.30;5.95;;;;;;;;;;4858094;29;20033;-90
2023/05/18 22:00:36;;;;;;;11.45;6.60;;;;;;;;;;4850942;29;20384;-96
2023/05/18 22:03:03;;;;;;;11.77;6.43;;;;;;;;;;4845895;29;20029;-91
2023/05/18 22:05:32;;;;;;;11.85;6.13;;;;;;;;;;4855341;29;20021;-96
2023/05/18 22:08:02;;;;;;;10.40;6.22;;;;;;;;;;4877705;29;20045;-95
2023/05/18 22:10:29;;;;;;;8.77;4.60;;;;;;;;;;4865098;29;20479;-89
2023/05/18 22:12:56;;;;;;;8.70;5.72;;;;;;;;;;4863476;29;20041;-91
2023/05/18 22:15:22;;;;;;;10.05;5.50;;;;;;;;;;4861252;29;20510;-96
2023/05/18 22:17:48;;;;;;;9.48;4.82;;;;;;;;;;4859293;29;20036;-91
2023/05/18 22:20:15;;;;;;;10.38;5.10;;;;;;;;;;4846531;29;20128;-95
2023/05/18 22:22:42;;;;;;;10.32;5.00;;;;;;;;;;4860231;29;20402;-95
2023/05/18 22:25:12;;;;;;;10.23;5.60;;;;;;;;;;4864483;29;20021;-95
2023/05/18 22:27:38;;;;;;;11.00;5.13;;;;;;;;;;4827685;29;20050;-95
2023/05/18 22:36:42;;;;;;;10.88;5.28;;;;;;;;;;5138138;24;20066;-93
2023/05/18 22:39:09;;;;;;;10.45;5.68;;;;;;;;;;4846959;29;20037;-91
2023/05/18 22:41:35;;;;;;;11.98;5.93;;;;;;;;;;4845571;29;20483;-91
2023/05/18 22:44:09;;;;;;;10.55;6.00;;;;;;;;;;4861460;29;20120;-95
2023/05/18 22:46:44;;;;;;;11.80;5.38;;;;;;;;;;4847203;29;20057;-91
2023/05/18 22:49:13;;;;;;;11.70;5.82;;;;;;;;;;4846742;29;20048;-96
2023/05/18 22:51:44;;;;;;;10.18;5.93;;;;;;;;;;4846188;29;20030;-91
2023/05/18 22:54:34;;;;;;;6.70;4.28;;;;;;;;;;4849097;29;20026;-93
2023/05/18 22:57:00;;;;;;;7.68;5.00;;;;;;;;;;4846123;29;20045;-90
2023/05/18 22:59:51;;;;;;;8.88;5.80;;;;;;;;;;4844054;29;20033;-94
2023/05/18 23:02:16;;;;;;;9.57;5.20;;;;;;;;;;4821381;29;20046;-95
2023/05/18 23:05:22;;;;;;;7.28;4.93;;;;;;;;;;4852254;29;20058;-96
2023/05/18 23:07:48;;;;;;;8.50;4.07;;;;;;;;;;4849881;29;20058;-95
2023/05/18 23:10:57;;;;;;;8.05;4.90;;;;;;;;;;4847922;29;20041;-95
2023/05/18 23:13:22;;;;;;;8.07;4.03;;;;;;;;;;4871551;29;20034;-95
2023/05/18 23:15:49;;;;;;;5.80;3.60;;;;;;;;;;4868006;29;20061;-96
2023/05/18 23:18:15;;;;;;;5.68;4.00;;;;;;;;;;4846356;29;20451;-95
2023/05/18 23:20:44;;;;;;;6.60;4.10;;;;;;;;;;4835989;29;20045;-96
2023/05/18 23:23:12;;;;;;;5.32;3.95;;;;;;;;;;4835867;29;20042;-96
2023/05/18 23:25:38;;;;;;;4.95;3.50;;;;;;;;;;4839186;29;20034;-92
2023/05/18 23:28:04;;;;;;;5.05;3.05;;;;;;;;;;4838537;29;20038;-92
2023/05/18 23:30:36;;;;;;;4.57;2.80;;;;;;;;;;4860613;29;20018;-96
2023/05/18 23:33:02;;;;;;;4.53;2.80;;;;;;;;;;4838946;29;20045;-95
2023/05/18 23:35:29;;;;;;;5.22;3.38;;;;;;;;;;4834674;29;20030;-93
2023/05/18 23:38:05;;;;;;;5.38;3.22;;;;;;;;;;4852503;29;20082;-94
2023/05/18 23:40:45;;;;;;;8.18;3.63;;;;;;;;;;4872217;29;20032;-96
2023/05/18 23:43:12;;;;;;;4.53;3.22;;;;;;;;;;4838835;29;20056;-91
2023/05/18 23:45:38;;;;;;;6.72;3.90;;;;;;;;;;4854021;29;20041;-94
2023/05/18 23:48:04;;;;;;;7.50;4.18;;;;;;;;;;4855314;29;20045;-95
2023/05/18 23:50:33;;;;;;;7.10;4.30;;;;;;;;;;4864009;29;20048;-91
2023/05/18 23:53:21;;;;;;;9.30;5.22;;;;;;;;;;4837876;29;20030;-96
2023/05/18 23:55:51;;;;;;;6.70;4.40;;;;;;;;;;4844700;29;20086;-90
2023/05/18 23:58:19;;;;;;;7.30;5.00;;;;;;;;;;4855831;29;20030;-94
